Big Bear Station Historical Data
Daily Summary for March 22, 2017 Units:  English    Metric   Both
« Previous Day
Next Day »
Daily Weekly Monthly Yearly Custom
  High: Low: Average:
Temperature: 45.0 °F 31.1 °F 38.7 °F
Dew Point: 41.0 °F 29.2 °F 34.2 °F
Humidity: 96 % 62 % 84 %
Wind Speed: 8.9 mph 0.0 mph 3.6 mph
Wind Gust: -999.0 mph - -
Wind:- - SW
Pressure: 30.11 in 29.99 in -
Precipitation: 0.06 in    
Historical Graphs
 
 
Tabular Data for March 22, 2017
Time Temperature Dew Point Pressure Wind Wind Speed Wind Gust Humidity Rainfall Rate (Hourly)
00:14 42.1 °F 41.0 °F 30.11 in East 2.7 mph -999.0 mph 96 % 0 in
00:30 42.1 °F 41.0 °F 30.11 in SSW 3.2 mph -999.0 mph 96 % 0 in
00:46 41.5 °F 40.2 °F 30.11 in SSW 1.1 mph -999.0 mph 95 % 0 in
01:01 41.2 °F 39.9 °F 30.11 in WNW 3.2 mph -999.0 mph 95 % 0 in
01:16 41.0 °F 39.4 °F 30.11 in ESE 4.2 mph -999.0 mph 94 % 0 in
01:31 41.0 °F 39.7 °F 30.10 in South 1.1 mph -999.0 mph 95 % 0 in
01:47 41.0 °F 39.9 °F 30.10 in SSW 3.2 mph -999.0 mph 96 % 0 in
02:02 40.6 °F 39.3 °F 30.09 in West 2.7 mph -999.0 mph 95 % 0 in
02:17 40.6 °F 39.5 °F 30.09 in SSE 2.2 mph -999.0 mph 96 % 0 in
02:32 40.3 °F 38.7 °F 30.09 in South 7.3 mph -999.0 mph 94 % 0 in
02:48 40.1 °F 38.8 °F 30.09 in SSW 5.8 mph -999.0 mph 95 % 0 in
03:03 39.7 °F 38.4 °F 30.09 in North 3.7 mph -999.0 mph 95 % 0 in
03:18 39.2 °F 37.9 °F 30.08 in West 3.2 mph -999.0 mph 95 % 0 in
03:34 39.2 °F 37.9 °F 30.08 in SSW 2.2 mph -999.0 mph 95 % 0 in
03:49 39.2 °F 37.9 °F 30.08 in SW 5.3 mph -999.0 mph 95 % 0 in
04:04 38.8 °F 36.4 °F 30.08 in South 6.3 mph -999.0 mph 91 % 0 in
04:20 38.5 °F 35.8 °F 30.07 in ESE 8.3 mph -999.0 mph 90 % 0 in
04:35 38.1 °F 35.7 °F 30.07 in WNW 3.2 mph -999.0 mph 91 % 0 in
04:50 37.9 °F 34.9 °F 30.07 in West 1.7 mph -999.0 mph 89 % 0 in
05:06 37.4 °F 34.7 °F 30.06 in SW 1.1 mph -999.0 mph 90 % 0 in
05:21 37.2 °F 34.3 °F 30.07 in WNW 3.2 mph -999.0 mph 89 % 0 in
05:36 36.9 °F 33.1 °F 30.07 in West 2.7 mph -999.0 mph 86 % 0 in
05:52 36.3 °F 32.8 °F 30.07 in South 2.2 mph -999.0 mph 87 % 0 in
06:07 36.1 °F 32.6 °F 30.06 in South 3.2 mph -999.0 mph 87 % 0 in
06:22 36.0 °F 32.2 °F 30.07 in SSE 3.7 mph -999.0 mph 86 % 0 in
06:37 36.0 °F 33.1 °F 30.07 in WSW 3.2 mph -999.0 mph 89 % 0 in
06:53 36.1 °F 32.6 °F 30.07 in West 2.2 mph -999.0 mph 87 % 0 in
07:08 36.1 °F 33.2 °F 30.07 in SSE 2.2 mph -999.0 mph 89 % 0 in
07:23 36.3 °F 33.1 °F 30.07 in West 2.2 mph -999.0 mph 88 % 0 in
07:38 36.3 °F 33.6 °F 30.07 in SSW 3.2 mph -999.0 mph 90 % 0 in
07:54 36.7 °F 32.9 °F 30.07 in South 2.7 mph -999.0 mph 86 % 0 in
08:09 37.2 °F 32.8 °F 30.08 in South 5.3 mph -999.0 mph 84 % 0 in
08:24 37.6 °F 33.2 °F 30.08 in ESE 3.2 mph -999.0 mph 84 % 0 in
08:39 37.9 °F 32.6 °F 30.08 in SSW 2.7 mph -999.0 mph 81 % 0 in
08:54 38.7 °F 32.1 °F 30.08 in SSW 5.3 mph -999.0 mph 77 % 0 in
09:10 39.2 °F 32.9 °F 30.08 in WSW 6.3 mph -999.0 mph 78 % 0 in
09:25 39.6 °F 33.9 °F 30.08 in NW 3.2 mph -999.0 mph 80 % 0 in
09:40 39.9 °F 35.8 °F 30.08 in SSE 2.2 mph -999.0 mph 85 % 0 in
09:56 40.1 °F 36.0 °F 30.09 in WNW 2.7 mph -999.0 mph 85 % 0 in
10:11 40.8 °F 36.3 °F 30.08 in SSE 1.7 mph -999.0 mph 84 % 0 in
10:26 41.7 °F 36.6 °F 30.08 in WNW 7.3 mph -999.0 mph 82 % 0 in
10:41 42.3 °F 37.5 °F 30.08 in West 2.2 mph -999.0 mph 83 % 0 in
10:57 43.7 °F 37.6 °F 30.09 in NNW 5.8 mph -999.0 mph 79 % 0 in
11:12 43.0 °F 37.9 °F 30.09 in SSW 5.8 mph -999.0 mph 82 % 0 in
11:27 42.6 °F 37.2 °F 30.09 in South 3.2 mph -999.0 mph 81 % 0 in
11:43 45.0 °F 38.6 °F 30.09 in NW 5.3 mph -999.0 mph 78 % 0 in
11:58 44.1 °F 37.0 °F 30.09 in South 3.2 mph -999.0 mph 76 % 0 in
12:13 44.1 °F 36.0 °F 30.08 in SE 3.7 mph -999.0 mph 73 % 0 in
12:29 44.2 °F 37.4 °F 30.08 in SW 2.7 mph -999.0 mph 77 % 0 in
12:44 43.0 °F 36.9 °F 30.07 in Calm   -999.0 mph 79 % 0 in
12:59 45.0 °F 37.2 °F 30.07 in NNW 7.3 mph -999.0 mph 74 % 0 in
13:14 43.7 °F 36.6 °F 30.07 in NNW 6.3 mph -999.0 mph 76 % 0 in
13:29 44.1 °F 36.0 °F 30.07 in NNE 7.3 mph -999.0 mph 73 % 0 in
13:45 43.3 °F 35.9 °F 30.07 in WNW 8.9 mph -999.0 mph 75 % 0 in
14:00 43.5 °F 35.4 °F 30.06 in NW 6.3 mph -999.0 mph 73 % 0 in
14:15 43.2 °F 34.4 °F 30.06 in NNE 6.3 mph -999.0 mph 71 % 0 in
14:30 43.9 °F 35.5 °F 30.06 in North 3.2 mph -999.0 mph 72 % 0 in
14:45 43.5 °F 34.7 °F 30.04 in WNW 3.7 mph -999.0 mph 71 % 0 in
15:01 44.8 °F 32.6 °F 30.03 in North 6.8 mph -999.0 mph 62 % 0 in
15:16 44.8 °F 33.4 °F 30.04 in South 1.7 mph -999.0 mph 64 % 0 in
15:32 43.3 °F 31.9 °F 30.03 in WNW 3.7 mph -999.0 mph 64 % 0 in
15:47 43.5 °F 32.1 °F 30.03 in SSW 1.1 mph -999.0 mph 64 % 0 in
16:02 43.0 °F 32.4 °F 30.03 in NNW 5.8 mph -999.0 mph 66 % 0 in
16:17 43.2 °F 33.0 °F 30.02 in NW 2.2 mph -999.0 mph 67 % 0 in
16:32 43.3 °F 33.4 °F 30.02 in NW 2.2 mph -999.0 mph 68 % 0 in
16:48 42.3 °F 33.2 °F 30.01 in South 3.2 mph -999.0 mph 70 % 0 in
17:03 40.3 °F 32.3 °F 30.01 in SW 2.7 mph -999.0 mph 73 % 0 in
17:18 39.6 °F 32.7 °F 30.00 in NNW 3.2 mph -999.0 mph 76 % 0 in
17:34 38.7 °F 33.4 °F 30.01 in South 1.1 mph -999.0 mph 81 % 0 in
17:49 38.1 °F 33.4 °F 30.00 in SW 1.1 mph -999.0 mph 83 % 0 in
18:04 37.8 °F 32.8 °F 30.00 in WNW 3.7 mph -999.0 mph 82 % 0 in
18:20 37.2 °F 32.5 °F 30.00 in ENE 3.2 mph -999.0 mph 83 % 0 in
18:36 36.5 °F 32.1 °F 30.00 in ENE 2.2 mph -999.0 mph 84 % 0 in
18:51 36.0 °F 31.6 °F 30.00 in SSW 6.3 mph -999.0 mph 84 % 0 in
19:06 35.6 °F 31.2 °F 30.00 in ESE 2.7 mph -999.0 mph 84 % 0 in
19:22 35.4 °F 31.0 °F 30.00 in WNW 2.2 mph -999.0 mph 84 % 0 in
19:37 35.1 °F 30.5 °F 29.99 in WNW 4.2 mph -999.0 mph 83 % 0 in
19:52 35.1 °F 31.0 °F 30.00 in SW 2.7 mph -999.0 mph 85 % 0 in
20:07 33.4 °F 30.5 °F 30.00 in WSW 2.7 mph -999.0 mph 89 % 0 in
20:22 32.9 °F 30.3 °F 30.01 in WSW 3.7 mph -999.0 mph 90 % 0 in
20:38 32.9 °F 29.5 °F 30.01 in ESE 1.1 mph -999.0 mph 87 % 0 in
20:53 32.9 °F 29.5 °F 30.01 in Calm   -999.0 mph 87 % 0 in
21:09 32.7 °F 30.4 °F 30.01 in WNW 3.7 mph -999.0 mph 91 % 0 in
21:24 32.4 °F 30.6 °F 30.01 in NNW 2.7 mph -999.0 mph 93 % 0 in
21:39 32.2 °F 29.9 °F 30.02 in WNW 7.8 mph -999.0 mph 91 % 0 in
21:55 32.2 °F 30.1 °F 30.02 in NW 3.7 mph -999.0 mph 92 % 0 in
22:10 32.0 °F 30.5 °F 30.02 in NW 4.2 mph -999.0 mph 94 % 0 in
22:25 31.3 °F 29.2 °F 30.02 in WNW 2.2 mph -999.0 mph 92 % 0 in
22:41 31.1 °F 29.6 °F 30.02 in SW 2.2 mph -999.0 mph 94 % 0 in
22:56 31.1 °F 29.3 °F 30.00 in NW 5.3 mph -999.0 mph 93 % 0 in
23:11 31.6 °F 29.8 °F 30.00 in NNW 6.3 mph -999.0 mph 93 % 0 in
23:26 31.6 °F 29.5 °F 30.00 in WNW 1.7 mph -999.0 mph 92 % 0 in
23:42 31.6 °F 29.8 °F 30.00 in North 4.7 mph -999.0 mph 93 % 0 in
23:57 31.5 °F 29.7 °F 29.99 in WNW 5.3 mph -999.0 mph 93 % 0 in
Big Bear CA Weather
Compliments of Weather Underground - 1.5 mb